Quick Links (Output Below):   Max & Min Temps   /   Climate Reports   /   Zone Forecasts
River Forecasts   /   Forestry Forecasts   /   Aviation Forecasts   /   Radars   /   Features

Terminal Aerodrome Forecast (Fayetteville)

Pick a Site:
Arkadelphia | El Dorado | Fayetteville | Fort Smith | Harrison | Highfill | Hot Springs | Jonesboro
Little Rock | Monticello | Mountain Home | Pine Bluff | Texarkana
 Forecast 

KFYV 301736Z 3018/3118 19007KT P6SM SCT250
     FM310000 00000KT P6SM SCT250
     FM310700 00000KT 4SM BR OVC010
     FM311000 19003KT 3SM BR OVC005
     FM311500 19004KT P6SM BKN015
     FM311700 24004KT P6SM SCT030=


 Latest METARs (Observations) 
How to Decode METARs
19Z KFYV 301853Z 18005KT 10SM CLR 21/06 A3017 RMK AO2 SLP212
         T02110061
         
18Z KFYV 301753Z 19005KT 10SM CLR 19/06 A3020 RMK AO2 SLP223 T01940061
         10200 20006 58009
         
17Z KFYV 301653Z VRB06G15KT 10SM CLR 19/04 A3021 RMK AO2 SLP227
         T01890044
         
16Z KFYV 301553Z 10SM CLR 17/07 A3022 RMK AO2 SLP233 T01670072
         
15Z KFYV 301453Z 00000KT 10SM CLR 13/08 A3023 RMK AO2 SLP234 T01330078
         50004
         
14Z KFYV 301353Z 17003KT 9SM CLR 06/06 A3023 RMK AO2 SLP239
         T00610061
         
13Z KFYV 301253Z 17003KT 8SM FEW002 02/02 A3023 RMK AO2 SLP238
         T00220022
         
12Z KFYV 301153Z 00000KT 9SM CLR 01/01 A3021 RMK AO2 SLP232 I1000
         I6000 T00110011 10056 20011 51006
         
11Z KFYV 301053Z 00000KT 5SM BR CLR 02/02 A3020 RMK AO2 SLP225
         T00220022
         
10Z KFYV 300953Z 00000KT 8SM CLR 03/03 A3019 RMK AO2 SLP223
         T00280028
         
***** Today's Observations (Above) *****


Back to Main Page
http://www.srh.noaa.gov/lzk/qfcst.php

USA.gov is the U.S. government's official web portal to all federal, state and local government web resources and services.